Time;durP1;ratioP1;P1;durP2;ratioP2;P2;SDS_P1;SDS_P2;PMS_P1;PMS_P2;Temp;Humidity;BMP_temperature;BMP_pressure;BME280_temperature;BME280_humidity;BME280_pressure;Samples;Min_cycle;Max_cycle;Signal;HPM_P1;HPM_P2
2021/06/16 00:00:01;;;;;;;15.60;12.93;;;17.20;99.90;;;;;;5041957;28;20836;-75
2021/06/16 00:02:28;;;;;;;15.40;14.10;;;17.10;99.90;;;;;;5043779;28;20471;-75
2021/06/16 00:04:56;;;;;;;14.43;13.17;;;17.10;99.90;;;;;;5042681;28;20495;-75
2021/06/16 00:07:23;;;;;;;14.47;13.47;;;17.10;99.90;;;;;;5041331;28;20467;-75
2021/06/16 00:09:49;;;;;;;14.67;13.63;;;17.00;99.90;;;;;;5042515;28;20833;-75
2021/06/16 00:12:16;;;;;;;15.53;13.80;;;16.90;99.90;;;;;;5040691;28;20472;-76
2021/06/16 00:14:43;;;;;;;14.67;13.53;;;16.90;99.90;;;;;;5041193;28;21258;-75
2021/06/16 00:17:10;;;;;;;15.03;13.93;;;16.90;99.90;;;;;;5041492;28;20852;-75
2021/06/16 00:19:37;;;;;;;15.90;14.40;;;16.90;99.90;;;;;;5038849;28;20830;-75
2021/06/16 00:22:06;;;;;;;23.03;15.20;;;16.80;99.90;;;;;;5042153;28;20494;-75
2021/06/16 00:24:33;;;;;;;15.50;14.27;;;16.90;99.90;;;;;;5041996;28;21006;-75
2021/06/16 00:27:00;;;;;;;15.43;14.30;;;16.90;99.90;;;;;;5039761;28;20452;-76
2021/06/16 00:29:27;;;;;;;14.97;14.00;;;16.90;99.90;;;;;;5044288;28;20551;-76
2021/06/16 00:31:54;;;;;;;15.23;13.77;;;16.80;99.90;;;;;;5043520;28;20478;-76
2021/06/16 00:34:21;;;;;;;18.67;14.20;;;16.80;99.90;;;;;;5040821;28;20539;-75
2021/06/16 00:36:48;;;;;;;15.37;14.37;;;16.90;99.90;;;;;;5041566;28;20461;-74
2021/06/16 00:39:16;;;;;;;14.67;13.60;;;16.90;99.90;;;;;;5041666;28;20471;-75
2021/06/16 00:41:44;;;;;;;15.53;14.00;;;16.80;99.90;;;;;;5043231;28;20742;-75
2021/06/16 00:44:11;;;;;;;17.23;15.53;;;16.80;99.90;;;;;;5035712;28;20503;-74
2021/06/16 00:46:39;;;;;;;14.50;13.40;;;16.80;99.90;;;;;;5038801;28;20461;-75
2021/06/16 00:49:06;;;;;;;15.57;14.27;;;16.80;99.90;;;;;;5041607;28;20463;-76
2021/06/16 00:51:33;;;;;;;15.57;14.20;;;16.90;99.90;;;;;;5035621;28;20469;-75
2021/06/16 00:53:59;;;;;;;15.50;14.20;;;16.90;99.90;;;;;;5035635;28;20460;-75
2021/06/16 00:56:27;;;;;;;14.10;12.90;;;17.00;99.90;;;;;;5036116;28;20465;-75
2021/06/16 00:58:54;;;;;;;15.53;14.23;;;17.00;99.90;;;;;;5036223;28;20456;-75
2021/06/16 01:01:24;;;;;;;15.03;13.97;;;17.10;99.90;;;;;;5038617;28;20495;-75
2021/06/16 01:03:58;;;;;;;15.93;14.27;;;17.10;99.90;;;;;;5039743;28;20463;-76
2021/06/16 01:06:29;;;;;;;14.97;13.67;;;17.20;99.90;;;;;;5042419;28;20471;-75
2021/06/16 01:09:02;;;;;;;14.63;13.33;;;17.20;99.90;;;;;;5040366;28;20849;-75
2021/06/16 01:11:34;;;;;;;15.40;14.00;;;17.20;99.90;;;;;;5038548;28;20818;-74
2021/06/16 01:14:09;;;;;;;16.10;14.70;;;17.20;99.90;;;;;;5036610;28;20820;-75
2021/06/16 01:16:41;;;;;;;15.10;14.10;;;17.30;99.90;;;;;;5039957;28;20488;-75
2021/06/16 01:19:17;;;;;;;15.90;14.70;;;17.20;99.90;;;;;;5032011;28;20538;-75
2021/06/16 01:21:50;;;;;;;14.87;13.53;;;17.20;99.90;;;;;;5042788;28;20456;-74
2021/06/16 01:24:18;;;;;;;14.33;13.17;;;17.20;99.90;;;;;;5042396;28;20494;-75
2021/06/16 01:26:50;;;;;;;15.30;13.87;;;17.10;99.90;;;;;;5040296;28;20463;-76
2021/06/16 01:29:21;;;;;;;16.33;14.93;;;17.10;99.90;;;;;;5034333;28;20555;-75
2021/06/16 01:31:50;;;;;;;15.93;14.30;;;17.10;99.90;;;;;;5037398;28;20462;-75
2021/06/16 01:34:20;;;;;;;15.10;14.10;;;17.10;99.90;;;;;;5032721;28;20486;-75
2021/06/16 01:36:49;;;;;;;16.20;15.00;;;17.10;99.90;;;;;;5043921;28;20481;-75
2021/06/16 01:39:18;;;;;;;15.53;14.37;;;17.10;99.90;;;;;;5041159;28;20466;-75
2021/06/16 01:41:49;;;;;;;48.20;14.90;;;17.20;99.90;;;;;;5033578;28;20469;-75
2021/06/16 01:44:16;;;;;;;15.40;14.30;;;17.30;99.90;;;;;;5034799;28;20536;-74
2021/06/16 01:46:45;;;;;;;15.27;14.13;;;17.40;99.90;;;;;;5043532;28;20806;-75
2021/06/16 01:49:12;;;;;;;16.00;14.30;;;17.40;99.90;;;;;;5033485;28;20460;-76
2021/06/16 01:51:40;;;;;;;15.47;14.13;;;17.40;99.90;;;;;;5039005;28;20464;-74
2021/06/16 01:54:09;;;;;;;15.27;14.17;;;17.50;99.90;;;;;;5033482;28;20453;-75
2021/06/16 01:56:37;;;;;;;15.10;14.10;;;17.40;99.90;;;;;;5044301;28;20456;-75
2021/06/16 01:59:08;;;;;;;15.37;14.23;;;17.30;99.90;;;;;;5043661;28;20471;-75
2021/06/16 02:01:36;;;;;;;15.63;14.40;;;17.30;99.90;;;;;;5044339;28;20471;-76
2021/06/16 02:04:03;;;;;;;14.50;13.33;;;17.20;99.90;;;;;;5044995;28;20459;-74
2021/06/16 02:06:34;;;;;;;16.10;14.80;;;17.20;99.90;;;;;;5042763;28;20509;-75
2021/06/16 02:09:02;;;;;;;16.30;15.07;;;17.10;99.90;;;;;;5038242;28;20854;-75
2021/06/16 02:11:31;;;;;;;15.20;14.00;;;17.10;99.90;;;;;;5041589;28;20468;-76
2021/06/16 02:14:01;;;;;;;16.23;14.60;;;17.10;99.90;;;;;;5037885;28;20479;-74
2021/06/16 02:16:37;;;;;;;16.40;15.00;;;17.10;99.90;;;;;;5043615;28;20489;-75
2021/06/16 02:19:09;;;;;;;15.67;14.57;;;17.10;99.90;;;;;;5042027;28;20463;-74
2021/06/16 02:21:36;;;;;;;16.37;14.67;;;17.10;99.90;;;;;;5040349;28;20828;-75
2021/06/16 02:24:03;;;;;;;15.23;14.20;;;17.10;99.90;;;;;;5046392;28;20470;-76
2021/06/16 02:26:30;;;;;;;14.70;13.80;;;17.10;99.90;;;;;;5043518;28;21028;-76
2021/06/16 02:28:57;;;;;;;16.33;14.70;;;17.10;99.90;;;;;;5036707;28;20485;-77
2021/06/16 02:31:23;;;;;;;15.27;14.03;;;17.20;99.90;;;;;;5039362;28;20475;-75
2021/06/16 02:33:53;;;;;;;15.40;14.50;;;17.20;99.90;;;;;;5042317;28;20456;-77
2021/06/16 02:36:22;;;;;;;15.07;13.97;;;17.20;99.90;;;;;;5039194;28;20459;-75
2021/06/16 02:38:55;;;;;;;15.67;14.63;;;17.10;99.90;;;;;;5042562;28;20556;-75
2021/06/16 02:41:22;;;;;;;15.80;14.40;;;17.10;99.90;;;;;;5034668;28;20460;-75
2021/06/16 02:43:50;;;;;;;15.90;14.90;;;17.00;99.90;;;;;;5038822;28;20826;-77
2021/06/16 02:46:18;;;;;;;16.80;15.03;;;17.00;99.90;;;;;;5031946;28;20492;-75
2021/06/16 02:48:48;;;;;;;15.80;14.70;;;17.00;99.90;;;;;;5032348;28;20832;-76
2021/06/16 02:51:17;;;;;;;16.30;15.10;;;17.00;99.90;;;;;;5033560;28;20484;-73
2021/06/16 02:53:45;;;;;;;15.63;14.63;;;16.90;99.90;;;;;;5032486;28;20546;-75
2021/06/16 02:56:14;;;;;;;15.10;14.07;;;16.90;99.90;;;;;;5033559;28;21301;-76
2021/06/16 02:58:43;;;;;;;15.60;14.47;;;16.90;99.90;;;;;;5034351;28;20459;-75
2021/06/16 03:01:15;;;;;;;15.97;14.53;;;16.90;99.90;;;;;;5034320;28;20461;-75
2021/06/16 03:03:44;;;;;;;15.70;14.43;;;16.80;99.90;;;;;;5032759;28;20471;-76
2021/06/16 03:06:11;;;;;;;16.60;15.30;;;16.80;99.90;;;;;;5032555;28;20491;-75
2021/06/16 03:08:44;;;;;;;16.40;15.20;;;16.80;99.90;;;;;;5038072;28;20490;-75
2021/06/16 03:11:12;;;;;;;16.83;15.37;;;16.80;99.90;;;;;;5030466;28;20460;-74
2021/06/16 03:13:39;;;;;;;16.63;14.90;;;16.90;99.90;;;;;;5036234;28;21046;-74
2021/06/16 03:16:07;;;;;;;16.53;15.13;;;16.80;99.90;;;;;;5035680;28;20500;-74
2021/06/16 03:18:34;;;;;;;15.30;14.20;;;16.80;99.90;;;;;;5035115;28;20876;-74
2021/06/16 03:21:02;;;;;;;15.87;14.67;;;16.80;99.90;;;;;;5034295;28;20464;-75
2021/06/16 03:23:30;;;;;;;17.13;15.30;;;16.80;99.90;;;;;;5043669;28;20961;-75
2021/06/16 03:25:59;;;;;;;16.50;15.00;;;16.80;99.90;;;;;;5036597;28;20491;-75
2021/06/16 03:28:28;;;;;;;15.33;14.20;;;16.90;99.90;;;;;;5035929;28;21002;-74
2021/06/16 03:30:57;;;;;;;16.60;15.03;;;16.80;99.90;;;;;;5035277;28;20453;-74
2021/06/16 03:33:24;;;;;;;14.80;13.70;;;16.70;99.90;;;;;;5041424;28;20466;-74
2021/06/16 03:35:51;;;;;;;15.43;14.37;;;16.60;99.90;;;;;;5037699;28;20463;-74
2021/06/16 03:38:18;;;;;;;17.27;15.67;;;16.60;99.90;;;;;;5034468;28;20468;-74
2021/06/16 03:40:48;;;;;;;16.40;15.10;;;16.60;99.90;;;;;;5033088;28;20457;-74
2021/06/16 03:43:18;;;;;;;16.50;15.00;;;16.70;99.90;;;;;;5034336;28;21010;-76
2021/06/16 03:45:46;;;;;;;15.83;14.57;;;16.80;99.90;;;;;;5043294;28;20487;-74
2021/06/16 03:48:16;;;;;;;15.60;14.20;;;16.90;99.90;;;;;;5038410;28;20824;-76
2021/06/16 03:50:44;;;;;;;15.10;14.00;;;17.00;99.90;;;;;;5036364;28;20818;-74
2021/06/16 03:53:12;;;;;;;16.30;14.93;;;17.00;99.90;;;;;;5039752;28;20461;-74
2021/06/16 03:55:40;;;;;;;15.60;14.40;;;17.00;99.90;;;;;;5038545;28;20456;-76
2021/06/16 03:58:09;;;;;;;15.97;14.80;;;17.00;99.90;;;;;;5034985;28;20465;-75
2021/06/16 04:00:37;;;;;;;15.73;14.60;;;17.00;99.90;;;;;;5037189;28;20464;-75
2021/06/16 04:03:07;;;;;;;15.27;13.90;;;17.10;99.90;;;;;;5036025;28;20471;-75
2021/06/16 04:05:34;;;;;;;16.40;15.07;;;17.10;99.90;;;;;;5038392;28;20485;-75
2021/06/16 04:08:01;;;;;;;17.93;16.47;;;17.20;99.90;;;;;;5040603;28;20472;-77
2021/06/16 04:10:29;;;;;;;16.97;15.67;;;17.30;99.90;;;;;;5033757;28;20475;-74
2021/06/16 04:12:56;;;;;;;16.40;14.77;;;17.30;99.90;;;;;;5042029;28;20503;-75
2021/06/16 04:15:23;;;;;;;16.97;15.77;;;17.40;99.90;;;;;;5041393;28;20482;-75
2021/06/16 04:17:53;;;;;;;16.50;15.23;;;17.40;99.90;;;;;;5043797;28;20462;-75
2021/06/16 04:20:20;;;;;;;15.10;14.13;;;17.50;99.90;;;;;;5035753;28;20554;-76
2021/06/16 04:22:47;;;;;;;16.33;15.13;;;17.60;99.90;;;;;;5044999;28;20656;-76
2021/06/16 04:25:14;;;;;;;16.17;14.70;;;17.60;99.90;;;;;;5040252;28;20558;-75
2021/06/16 04:27:41;;;;;;;16.40;15.20;;;17.80;99.90;;;;;;5036994;28;20465;-75
2021/06/16 04:30:12;;;;;;;16.77;15.33;;;18.10;99.90;;;;;;5037066;28;20472;-75
2021/06/16 04:32:39;;;;;;;16.97;15.77;;;18.20;99.90;;;;;;5039066;28;20829;-74
2021/06/16 04:35:09;;;;;;;17.13;15.73;;;18.30;99.90;;;;;;5043988;28;20459;-75
2021/06/16 04:37:37;;;;;;;16.80;15.33;;;18.40;99.90;;;;;;5037851;28;20490;-77
2021/06/16 04:40:05;;;;;;;16.30;15.07;;;18.50;99.90;;;;;;5038106;28;20470;-75
2021/06/16 04:42:33;;;;;;;17.13;15.83;;;18.60;99.90;;;;;;5042101;28;20467;-75
2021/06/16 04:44:59;;;;;;;16.83;15.50;;;18.60;99.90;;;;;;5038006;28;20464;-75
2021/06/16 04:47:27;;;;;;;17.17;15.93;;;18.70;99.90;;;;;;5041452;28;20466;-74
2021/06/16 04:49:54;;;;;;;18.40;16.70;;;18.50;99.90;;;;;;5039423;28;20498;-74
2021/06/16 04:52:22;;;;;;;16.40;15.13;;;18.50;99.90;;;;;;5037953;28;20467;-76
2021/06/16 04:54:49;;;;;;;16.83;15.33;;;18.60;99.90;;;;;;5035422;28;20849;-74
2021/06/16 04:57:16;;;;;;;17.87;15.70;;;18.70;99.90;;;;;;5034187;28;20969;-74
2021/06/16 04:59:43;;;;;;;21.50;16.60;;;18.90;99.90;;;;;;5042396;28;20471;-76
2021/06/16 05:02:10;;;;;;;19.00;16.43;;;18.90;99.90;;;;;;5036009;28;20461;-75
2021/06/16 05:04:37;;;;;;;18.73;16.73;;;18.90;99.90;;;;;;5036416;28;20456;-76
2021/06/16 05:07:04;;;;;;;18.13;16.73;;;19.00;99.90;;;;;;5041264;28;20488;-76
2021/06/16 05:09:33;;;;;;;16.90;15.80;;;19.10;99.90;;;;;;5033843;28;20947;-75
2021/06/16 05:11:59;;;;;;;18.23;16.73;;;19.10;99.90;;;;;;5039946;28;20474;-75
2021/06/16 05:14:27;;;;;;;18.27;16.40;;;19.10;99.90;;;;;;5034815;28;20838;-76
2021/06/16 05:16:54;;;;;;;17.83;16.63;;;19.10;99.90;;;;;;5039667;28;20492;-76
2021/06/16 05:19:23;;;;;;;17.93;16.73;;;19.00;99.90;;;;;;5040801;28;20972;-75
2021/06/16 05:21:51;;;;;;;18.70;17.00;;;19.10;99.90;;;;;;5034652;28;20457;-76
2021/06/16 05:24:18;;;;;;;17.87;16.60;;;19.30;99.90;;;;;;5031611;28;20540;-75
2021/06/16 05:26:46;;;;;;;18.03;16.53;;;19.40;99.90;;;;;;5033906;28;21067;-75
2021/06/16 05:29:13;;;;;;;18.63;17.17;;;19.50;99.90;;;;;;5038631;28;20468;-74
2021/06/16 05:31:40;;;;;;;19.33;17.63;;;19.50;99.90;;;;;;5043395;28;20554;-75
2021/06/16 05:34:07;;;;;;;18.60;17.30;;;19.40;99.90;;;;;;5041396;28;20474;-75
2021/06/16 05:36:35;;;;;;;18.37;16.93;;;19.60;99.90;;;;;;5037091;28;20518;-77
2021/06/16 05:39:03;;;;;;;17.70;16.30;;;19.80;99.90;;;;;;5036477;28;20592;-75
2021/06/16 05:41:29;;;;;;;17.60;16.50;;;19.90;99.90;;;;;;5031461;28;20816;-75
2021/06/16 05:43:57;;;;;;;18.67;17.17;;;20.00;99.90;;;;;;5042076;28;20460;-76
2021/06/16 05:46:25;;;;;;;18.83;17.30;;;20.20;99.90;;;;;;5041665;28;21038;-76
2021/06/16 05:48:52;;;;;;;18.73;17.43;;;20.30;99.90;;;;;;5037375;28;20966;-75
2021/06/16 05:51:18;;;;;;;18.43;17.00;;;20.40;99.90;;;;;;5041796;28;20460;-75
2021/06/16 05:53:45;;;;;;;18.60;17.13;;;20.50;99.90;;;;;;5037663;28;20713;-75
2021/06/16 05:56:12;;;;;;;18.80;17.30;;;20.60;99.90;;;;;;5040722;28;20471;-75
2021/06/16 05:58:39;;;;;;;17.13;15.83;;;20.80;99.90;;;;;;5035615;28;20545;-75
2021/06/16 06:01:07;;;;;;;18.73;17.53;;;20.90;99.90;;;;;;5038246;28;20472;-74
2021/06/16 06:03:34;;;;;;;19.13;17.50;;;21.00;99.90;;;;;;5036899;28;20464;-76
2021/06/16 06:06:01;;;;;;;19.33;17.83;;;21.00;99.90;;;;;;5042718;28;20538;-75
2021/06/16 06:08:28;;;;;;;19.20;17.80;;;21.00;99.90;;;;;;5043452;28;20811;-75
2021/06/16 06:10:57;;;;;;;19.63;17.27;;;21.00;99.90;;;;;;5041719;28;20460;-75
2021/06/16 06:13:24;;;;;;;18.77;17.40;;;21.10;99.90;;;;;;5040539;28;20521;-75
2021/06/16 06:15:51;;;;;;;19.10;17.77;;;21.40;99.90;;;;;;5039015;28;22970;-75
2021/06/16 06:18:19;;;;;;;18.33;17.13;;;21.40;99.90;;;;;;5039013;28;20471;-75
2021/06/16 06:20:47;;;;;;;19.33;17.23;;;21.70;99.90;;;;;;5033882;28;20459;-76
2021/06/16 06:23:13;;;;;;;19.00;17.50;;;21.90;99.90;;;;;;5037185;28;20460;-76
2021/06/16 06:25:40;;;;;;;19.67;17.87;;;22.30;99.90;;;;;;5036777;28;20457;-75
2021/06/16 06:28:07;;;;;;;23.57;18.57;;;22.40;99.90;;;;;;5035651;28;20475;-75
2021/06/16 06:30:34;;;;;;;19.57;17.83;;;22.60;99.90;;;;;;5036535;28;21060;-76
2021/06/16 06:33:01;;;;;;;26.73;16.70;;;22.80;99.90;;;;;;5038173;28;20987;-75
2021/06/16 06:35:29;;;;;;;18.43;16.80;;;22.80;99.90;;;;;;5037871;28;20488;-75
2021/06/16 06:37:56;;;;;;;28.33;17.30;;;23.00;99.90;;;;;;5033524;28;20499;-76
2021/06/16 06:40:23;;;;;;;22.57;17.80;;;23.00;99.90;;;;;;5037575;28;21111;-74
2021/06/16 06:42:50;;;;;;;21.93;17.37;;;22.80;99.90;;;;;;5043677;28;20748;-75
2021/06/16 06:45:18;;;;;;;24.93;17.67;;;22.90;99.90;;;;;;5046628;28;20463;-75
2021/06/16 06:47:45;;;;;;;18.63;17.03;;;23.00;99.90;;;;;;5040432;28;20491;-76
2021/06/16 06:50:13;;;;;;;21.43;17.47;;;23.20;99.90;;;;;;5038394;28;20464;-75
2021/06/16 06:52:42;;;;;;;24.03;16.93;;;23.10;99.90;;;;;;5038720;28;20858;-76
2021/06/16 06:55:11;;;;;;;21.33;17.50;;;23.20;99.90;;;;;;5040014;28;20913;-75
2021/06/16 06:57:38;;;;;;;25.73;18.37;;;23.40;99.90;;;;;;5039860;28;20471;-75
2021/06/16 07:00:06;;;;;;;33.30;18.50;;;23.40;99.90;;;;;;5038517;28;20461;-75
2021/06/16 07:02:33;;;;;;;26.33;18.07;;;23.70;99.90;;;;;;5040410;28;20469;-75
2021/06/16 07:05:01;;;;;;;19.43;17.50;;;24.10;99.90;;;;;;5038493;28;20467;-74
2021/06/16 07:07:28;;;;;;;21.63;17.73;;;24.10;99.90;;;;;;5041157;28;20654;-76
2021/06/16 07:09:56;;;;;;;41.03;18.83;;;24.30;99.90;;;;;;5034703;28;20554;-74
2021/06/16 07:12:23;;;;;;;45.27;19.30;;;24.20;99.90;;;;;;5035072;28;20464;-74
2021/06/16 07:14:52;;;;;;;41.43;19.43;;;24.50;99.90;;;;;;5041537;28;20468;-76
2021/06/16 07:17:20;;;;;;;31.57;19.53;;;24.40;99.90;;;;;;5038277;28;20495;-74
2021/06/16 07:19:47;;;;;;;32.17;18.60;;;24.60;99.90;;;;;;5039843;28;20812;-76
2021/06/16 07:22:14;;;;;;;34.87;19.40;;;24.70;99.90;;;;;;5040854;28;21028;-75
2021/06/16 07:24:41;;;;;;;36.00;18.70;;;24.40;99.90;;;;;;5038601;28;20461;-74
2021/06/16 07:27:10;;;;;;;22.43;18.47;;;24.80;99.90;;;;;;5038996;28;20499;-75
2021/06/16 07:29:37;;;;;;;25.97;18.13;;;24.70;99.90;;;;;;5041635;28;20957;-76
2021/06/16 07:32:05;;;;;;;32.20;18.90;;;24.90;99.90;;;;;;5030719;28;20922;-75
2021/06/16 07:34:31;;;;;;;22.67;18.03;;;25.00;99.90;;;;;;5031483;28;20743;-75
2021/06/16 07:36:58;;;;;;;24.13;17.97;;;25.10;99.90;;;;;;5038634;28;20468;-75
2021/06/16 07:39:25;;;;;;;31.63;18.07;;;25.30;99.90;;;;;;5023843;28;20491;-75
2021/06/16 07:41:52;;;;;;;22.03;17.90;;;25.40;99.90;;;;;;5018868;28;20456;-74
2021/06/16 07:44:20;;;;;;;18.50;16.90;;;25.40;99.90;;;;;;5026107;28;20559;-75
2021/06/16 07:46:47;;;;;;;17.97;16.23;;;25.50;99.90;;;;;;5031026;28;20487;-75
2021/06/16 07:49:14;;;;;;;19.33;17.40;;;25.70;99.90;;;;;;5032117;28;20452;-75
2021/06/16 07:51:41;;;;;;;27.27;17.00;;;25.70;99.90;;;;;;5035176;28;20577;-75
2021/06/16 07:54:11;;;;;;;19.07;17.77;;;26.00;99.90;;;;;;5028836;28;20461;-75
2021/06/16 07:56:38;;;;;;;18.40;16.87;;;26.10;99.90;;;;;;5033848;28;20902;-75
2021/06/16 07:59:05;;;;;;;19.13;17.77;;;26.30;99.90;;;;;;5027758;28;20550;-75
2021/06/16 08:01:34;;;;;;;19.20;17.70;;;26.50;99.90;;;;;;5028957;28;20468;-75
2021/06/16 08:04:01;;;;;;;19.03;16.83;;;26.60;99.90;;;;;;5031012;28;20669;-75
2021/06/16 08:06:28;;;;;;;19.80;17.73;;;27.20;99.90;;;;;;5038333;28;20476;-75
2021/06/16 08:08:55;;;;;;;18.80;17.60;;;28.00;99.90;;;;;;5031647;28;20468;-75
2021/06/16 08:11:22;;;;;;;19.33;17.43;;;28.70;99.90;;;;;;5030929;28;20507;-75
2021/06/16 08:13:49;;;;;;;18.47;16.83;;;29.50;99.90;;;;;;5033614;28;20461;-74
2021/06/16 08:16:18;;;;;;;20.80;18.67;;;30.00;99.90;;;;;;5033396;28;21007;-75
2021/06/16 08:18:47;;;;;;;19.27;17.53;;;31.00;99.90;;;;;;5034170;28;20809;-75
2021/06/16 08:21:16;;;;;;;20.13;18.13;;;30.80;99.60;;;;;;5027225;28;21006;-75
2021/06/16 08:23:43;;;;;;;20.80;18.90;;;31.00;99.90;;;;;;5029995;28;20471;-74
2021/06/16 08:26:10;;;;;;;19.73;18.40;;;30.70;99.00;;;;;;5035806;28;20475;-74
2021/06/16 08:28:38;;;;;;;20.00;18.50;;;31.40;98.90;;;;;;5035684;28;20465;-74
2021/06/16 08:31:05;;;;;;;19.30;17.60;;;31.40;97.40;;;;;;5034429;28;20461;-75
2021/06/16 08:33:32;;;;;;;18.73;17.10;;;30.10;98.80;;;;;;5034103;28;20491;-74
2021/06/16 08:36:00;;;;;;;19.23;17.70;;;30.10;99.90;;;;;;5036025;28;20470;-75
2021/06/16 08:38:27;;;;;;;20.80;18.00;;;30.80;99.30;;;;;;5035142;28;20844;-76
2021/06/16 08:40:54;;;;;;;25.30;17.93;;;31.50;98.40;;;;;;5031455;28;20471;-75
2021/06/16 08:43:21;;;;;;;19.87;18.43;;;32.30;97.00;;;;;;5035918;28;20457;-76
2021/06/16 08:45:49;;;;;;;21.53;19.60;;;32.30;96.40;;;;;;5038047;28;20464;-75
2021/06/16 08:48:16;;;;;;;21.40;19.20;;;32.40;95.70;;;;;;5033931;28;21082;-75
2021/06/16 08:50:43;;;;;;;19.60;17.80;;;32.30;95.40;;;;;;5031112;28;20515;-75
2021/06/16 08:53:12;;;;;;;20.60;18.97;;;32.60;95.10;;;;;;5034000;28;20467;-75
2021/06/16 08:55:39;;;;;;;20.70;18.77;;;33.30;94.80;;;;;;5032050;28;20579;-76
2021/06/16 08:58:06;;;;;;;20.80;18.90;;;33.20;94.70;;;;;;5032655;28;20472;-75
2021/06/16 09:00:33;;;;;;;20.37;18.50;;;33.10;94.30;;;;;;5033355;28;20495;-74
2021/06/16 09:02:59;;;;;;;27.30;18.53;;;33.80;93.80;;;;;;5038726;28;20476;-75
2021/06/16 09:05:36;;;;;;;20.00;18.40;;;33.10;92.80;;;;;;5031403;28;20507;-75
2021/06/16 09:08:16;;;;;;;20.80;18.93;;;32.50;93.50;;;;;;5029763;28;20491;-74
2021/06/16 09:10:48;;;;;;;20.30;18.70;;;32.80;93.60;;;;;;5036231;28;20455;-75
2021/06/16 09:13:26;;;;;;;19.83;18.53;;;33.40;93.30;;;;;;5035663;28;20464;-76
2021/06/16 09:15:53;;;;;;;18.63;17.07;;;33.80;93.10;;;;;;5031666;28;20480;-74
2021/06/16 09:18:20;;;;;;;19.60;18.50;;;34.10;91.80;;;;;;5032399;28;20518;-74
2021/06/16 09:20:49;;;;;;;20.10;18.63;;;33.80;91.20;;;;;;5032645;28;20535;-74
2021/06/16 09:23:22;;;;;;;22.87;20.30;;;34.60;91.40;;;;;;5036800;28;20522;-75
2021/06/16 09:26:05;;;;;;;21.30;18.90;;;35.00;88.80;;;;;;5030515;28;20500;-75
2021/06/16 09:28:35;;;;;;;21.00;19.40;;;35.30;87.90;;;;;;5033433;28;20574;-74
2021/06/16 09:31:02;;;;;;;21.30;19.20;;;34.90;87.70;;;;;;5025411;28;20460;-75
2021/06/16 09:33:29;;;;;;;18.97;17.83;;;35.40;88.80;;;;;;5027633;28;20470;-75
2021/06/16 09:35:56;;;;;;;20.57;19.00;;;36.00;87.90;;;;;;5039804;28;20460;-74
2021/06/16 09:38:28;;;;;;;20.43;19.03;;;36.20;83.20;;;;;;5038599;28;20468;-76
2021/06/16 09:40:57;;;;;;;19.97;18.40;;;36.70;83.80;;;;;;5032871;28;20464;-75
2021/06/16 09:43:26;;;;;;;21.10;19.30;;;36.50;82.20;;;;;;5032755;28;20958;-75
2021/06/16 09:45:57;;;;;;;21.13;19.13;;;35.90;80.60;;;;;;5031757;28;21310;-75
2021/06/16 09:48:29;;;;;;;20.23;17.63;;;36.40;81.70;;;;;;5035242;28;20506;-75
2021/06/16 09:51:11;;;;;;;20.50;18.90;;;36.90;79.00;;;;;;5034800;28;20467;-74
2021/06/16 09:56:33;;;;;;;21.30;19.40;;;36.50;79.20;;;;;;5128297;27;20385;-73
2021/06/16 09:59:01;;;;;;;20.30;18.60;;;35.70;78.50;;;;;;5128779;27;20479;-76
2021/06/16 10:01:52;;;;;;;19.93;18.00;;;36.10;80.10;;;;;;5129972;27;20499;-75
2021/06/16 10:04:42;;;;;;;19.03;17.43;;;37.00;77.00;;;;;;5133959;27;20819;-75
2021/06/16 10:07:20;;;;;;;19.47;17.90;;;36.20;77.50;;;;;;5137655;27;20665;-76
2021/06/16 10:09:58;;;;;;;19.60;17.80;;;36.20;76.70;;;;;;5131168;27;20892;-75
2021/06/16 10:12:29;;;;;;;21.53;18.90;;;36.30;77.50;;;;;;5125129;27;20464;-75
2021/06/16 10:14:57;;;;;;;19.53;17.97;;;37.10;77.40;;;;;;5134303;27;20582;-76
2021/06/16 10:17:24;;;;;;;21.47;19.43;;;37.50;74.70;;;;;;5128765;27;20480;-74
2021/06/16 10:19:53;;;;;;;22.30;18.97;;;38.00;72.20;;;;;;5127499;27;20463;-72
2021/06/16 10:22:21;;;;;;;24.70;18.93;;;38.40;72.80;;;;;;5119952;27;20456;-72
2021/06/16 10:24:48;;;;;;;20.57;18.50;;;38.60;70.40;;;;;;5127781;27;20500;-73
2021/06/16 10:27:18;;;;;;;20.13;18.53;;;38.80;70.80;;;;;;5128034;27;20464;-72
2021/06/16 10:29:50;;;;;;;21.67;19.50;;;39.00;69.30;;;;;;5127640;27;20485;-72
2021/06/16 10:32:17;;;;;;;19.90;18.30;;;38.30;66.30;;;;;;5123858;27;21044;-73
2021/06/16 10:34:58;;;;;;;19.87;18.10;;;37.80;67.00;;;;;;5127059;27;20935;-72
2021/06/16 10:37:28;;;;;;;19.97;17.93;;;38.40;65.80;;;;;;5124322;27;21075;-74
2021/06/16 10:40:34;;;;;;;19.90;18.10;;;38.60;63.40;;;;;;5133034;27;20463;-73
2021/06/16 10:43:25;;;;;;;30.83;19.33;;;38.30;63.40;;;;;;5118828;27;20468;-72
2021/06/16 10:45:55;;;;;;;20.83;19.23;;;37.30;64.60;;;;;;5124834;27;20451;-72
2021/06/16 10:48:41;;;;;;;21.17;19.20;;;36.20;66.00;;;;;;5127863;27;20832;-71
2021/06/16 10:51:09;;;;;;;21.07;19.20;;;35.90;68.10;;;;;;5128105;27;20513;-72
2021/06/16 10:53:56;;;;;;;20.93;18.83;;;36.00;69.10;;;;;;5126379;27;20794;-73
2021/06/16 10:56:41;;;;;;;26.10;19.40;;;36.20;69.40;;;;;;5123448;27;20518;-72
2021/06/16 10:59:08;;;;;;;23.13;20.43;;;36.70;67.10;;;;;;5126515;27;20484;-74
2021/06/16 11:01:49;;;;;;;28.10;19.57;;;36.70;67.80;;;;;;5127373;27;20464;-72
2021/06/16 11:04:29;;;;;;;21.40;19.53;;;37.40;67.90;;;;;;5125339;27;20452;-74
2021/06/16 11:06:57;;;;;;;21.53;19.23;;;38.10;67.30;;;;;;5122885;27;20452;-72
2021/06/16 11:09:51;;;;;;;22.23;20.17;;;37.70;65.20;;;;;;5109228;27;22612;-74
2021/06/16 11:12:29;;;;;;;21.40;19.37;;;38.00;64.70;;;;;;5105190;28;20545;-72
2021/06/16 11:14:56;;;;;;;21.43;18.50;;;37.60;64.30;;;;;;5122124;27;20476;-72
2021/06/16 11:17:46;;;;;;;22.33;20.03;;;36.50;66.50;;;;;;5119230;27;20479;-73
2021/06/16 11:20:22;;;;;;;24.63;19.00;;;37.40;66.80;;;;;;5111217;27;20454;-72
2021/06/16 11:22:55;;;;;;;21.67;19.87;;;37.80;65.50;;;;;;5108064;27;20805;-73
2021/06/16 11:25:28;;;;;;;20.73;19.03;;;38.30;66.20;;;;;;5111566;27;20465;-73
2021/06/16 11:28:19;;;;;;;20.73;18.80;;;37.60;67.80;;;;;;5116161;27;20460;-71
2021/06/16 11:31:05;;;;;;;20.53;18.50;;;37.60;65.70;;;;;;5104317;27;20510;-72
2021/06/16 11:33:46;;;;;;;21.60;19.80;;;38.30;64.10;;;;;;5110835;27;20800;-72
2021/06/16 11:36:17;;;;;;;20.37;18.57;;;37.40;64.70;;;;;;5109642;27;20497;-72
2021/06/16 11:38:54;;;;;;;20.70;19.10;;;37.00;67.00;;;;;;5111597;27;20457;-72
2021/06/16 11:41:22;;;;;;;21.17;18.40;;;37.00;66.20;;;;;;5116032;27;20456;-73
2021/06/16 11:43:51;;;;;;;19.60;17.90;;;37.60;65.40;;;;;;5112231;27;20457;-72
2021/06/16 11:46:25;;;;;;;20.73;18.20;;;38.40;64.40;;;;;;5110693;27;20453;-73
2021/06/16 11:49:00;;;;;;;20.13;18.53;;;38.70;63.60;;;;;;5111277;27;20897;-72
2021/06/16 11:51:32;;;;;;;18.77;17.47;;;39.60;62.00;;;;;;5111518;27;20529;-72
2021/06/16 11:54:22;;;;;;;19.60;17.73;;;39.30;64.20;;;;;;5115996;27;20540;-72
2021/06/16 11:56:52;;;;;;;19.33;17.40;;;39.50;62.70;;;;;;5118849;27;20491;-73
2021/06/16 11:59:34;;;;;;;19.03;17.73;;;39.90;61.50;;;;;;5111255;27;20461;-72
2021/06/16 12:02:09;;;;;;;19.03;17.80;;;40.00;59.60;;;;;;5108787;27;20495;-72
2021/06/16 12:04:51;;;;;;;19.10;17.53;;;39.60;59.20;;;;;;5110323;27;20461;-72
2021/06/16 12:07:26;;;;;;;19.80;18.20;;;39.00;61.50;;;;;;5113691;27;20925;-72
2021/06/16 12:09:56;;;;;;;18.20;17.00;;;39.60;60.30;;;;;;5107526;27;20459;-74
2021/06/16 12:12:23;;;;;;;20.53;19.10;;;40.80;59.20;;;;;;5109967;27;20471;-73
2021/06/16 12:15:04;;;;;;;19.90;18.40;;;41.20;59.20;;;;;;5108837;27;20457;-73
2021/06/16 12:17:31;;;;;;;19.50;18.00;;;41.50;58.40;;;;;;5110830;27;20483;-73
2021/06/16 12:20:05;;;;;;;17.53;16.63;;;41.40;57.90;;;;;;5106243;27;20467;-73
2021/06/16 12:22:32;;;;;;;17.70;16.23;;;40.30;57.90;;;;;;5108743;27;20842;-74
2021/06/16 12:24:59;;;;;;;20.03;17.90;;;41.30;57.40;;;;;;5115751;27;20452;-74
2021/06/16 12:27:33;;;;;;;19.40;17.50;;;41.20;56.70;;;;;;5106187;27;20460;-75
2021/06/16 12:30:01;;;;;;;20.33;18.83;;;40.00;57.90;;;;;;5106790;27;20811;-77
2021/06/16 12:32:32;;;;;;;19.60;17.80;;;40.10;57.60;;;;;;5105590;27;20463;-75
2021/06/16 12:35:17;;;;;;;19.60;17.90;;;39.60;58.50;;;;;;5114062;27;20505;-74
2021/06/16 12:37:48;;;;;;;17.80;16.57;;;39.40;59.10;;;;;;5108340;27;20478;-72
2021/06/16 12:40:15;;;;;;;20.03;18.73;;;38.70;58.30;;;;;;5106408;27;20481;-72
2021/06/16 12:42:45;;;;;;;19.00;17.50;;;38.50;60.20;;;;;;5113826;27;20464;-74